Time;durP1;ratioP1;P1;durP2;ratioP2;P2;SDS_P1;SDS_P2;PMS_P1;PMS_P2;Temp;Humidity;BMP_temperature;BMP_pressure;BME280_temperature;BME280_humidity;BME280_pressure;Samples;Min_cycle;Max_cycle;Signal;HPM_P1;HPM_P2
2022/08/12 00:44:40;;;;;;;;;;;;;;;21.29;99.50;102166.78;5093924;28;19920;-41
2022/08/12 00:47:10;;;;;;;;;;;;;;;21.27;99.52;102171.13;5094554;28;20335;-40
2022/08/12 00:49:54;;;;;;;;;;;;;;;21.24;99.86;102163.28;5091185;28;19993;-40
2022/08/12 00:52:22;;;;;;;;;;;;;;;21.21;100.00;102169.66;5093670;28;19920;-41
2022/08/12 00:54:52;;;;;;;;;;;;;;;21.20;100.00;102179.34;5094100;28;19920;-41
2022/08/12 00:57:21;;;;;;;;;;;;;;;21.18;100.00;102176.00;5094621;28;19924;-39
2022/08/12 00:59:50;;;;;;;;;;;;;;;21.16;100.00;102172.66;5093456;28;19923;-37
2022/08/12 01:02:23;;;;;;;;;;;;;;;21.14;100.00;102175.00;5094444;28;20290;-40
2022/08/12 01:13:12;;;;;;;;;;;;;;;21.07;100.00;102171.84;5093127;28;19927;-36
2022/08/12 01:15:48;;;;;;;;;;;;;;;21.02;100.00;102170.00;5089870;28;19920;-38
2022/08/12 01:18:17;;;;;;;;;;;;;;;21.01;100.00;102171.19;5093978;28;20273;-36
2022/08/12 01:20:48;;;;;;;;;;;;;;;20.99;100.00;102173.53;5091814;28;19927;-41
2022/08/12 01:23:35;;;;;;;;;;;;;;;20.98;100.00;102177.56;5093934;28;19932;-37
2022/08/12 01:26:05;;;;;;;;;;;;;;;20.97;100.00;102170.22;5093081;28;19924;-43
2022/08/12 01:28:34;;;;;;;;;;;;;;;20.94;100.00;102168.06;5094035;28;19920;-37
2022/08/12 01:31:04;;;;;;;;;;;;;;;20.94;100.00;102177.41;5093241;28;19924;-32
2022/08/12 01:33:34;;;;;;;;;;;;;;;20.91;100.00;102172.41;5093052;28;19927;-35
2022/08/12 01:36:03;;;;;;;;;;;;;;;20.90;100.00;102175.56;5093268;28;19924;-38
2022/08/12 01:38:36;;;;;;;;;;;;;;;20.89;100.00;102168.22;5093845;28;19919;-34
2022/08/12 01:41:05;;;;;;;;;;;;;;;20.88;100.00;102166.56;5092303;28;19920;-36
2022/08/12 01:43:33;;;;;;;;;;;;;;;20.86;100.00;102166.06;5094164;28;19924;-38
2022/08/12 01:46:06;;;;;;;;;;;;;;;20.85;100.00;102162.38;5092963;28;19920;-38
2022/08/12 01:48:49;;;;;;;;;;;;;;;20.83;100.00;102159.06;5072548;28;19920;-43
2022/08/12 01:51:30;;;;;;;;;;;;;;;20.83;100.00;102156.22;5090224;28;19927;-38
2022/08/12 01:54:18;;;;;;;;;;;;;;;20.82;100.00;102157.38;5072399;28;19920;-43
2022/08/12 01:56:51;;;;;;;;;;;;;;;20.79;100.00;102158.06;5092438;28;19924;-35
2022/08/12 01:59:48;;;;;;;;;;;;;;;20.78;100.00;102150.75;5093787;28;19927;-36
2022/08/12 02:02:17;;;;;;;;;;;;;;;20.76;100.00;102155.06;5088805;28;19928;-37
2022/08/12 02:13:43;;;;;;;;;;;;;;;20.67;100.00;102149.41;5085120;28;19923;-42
2022/08/12 02:16:23;;;;;;;;;;;;;;;20.66;100.00;102142.06;5092185;28;20006;-35
2022/08/12 02:18:57;;;;;;;;;;;;;;;20.64;100.00;102138.72;5092996;28;19920;-35
2022/08/12 02:21:31;;;;;;;;;;;;;;;20.62;100.00;102141.06;5092682;28;19930;-37
2022/08/12 02:23:59;;;;;;;;;;;;;;;20.60;100.00;102140.56;5092434;28;19957;-35
2022/08/12 02:26:29;;;;;;;;;;;;;;;20.59;100.00;102142.56;5092646;28;19930;-39
2022/08/12 02:29:00;;;;;;;;;;;;;;;20.58;100.00;102145.78;5090594;28;19924;-37
2022/08/12 02:31:29;;;;;;;;;;;;;;;20.57;100.00;102138.44;5092885;28;19926;-37
2022/08/12 02:33:57;;;;;;;;;;;;;;;20.56;100.00;102133.94;5092574;28;19923;-36
2022/08/12 02:36:26;;;;;;;;;;;;;;;20.54;100.00;102128.59;5091480;28;19920;-36
2022/08/12 02:38:58;;;;;;;;;;;;;;;20.52;100.00;102132.94;5081949;28;19920;-39
2022/08/12 02:41:26;;;;;;;;;;;;;;;20.50;100.00;102124.75;5092606;28;19942;-36
2022/08/12 02:43:55;;;;;;;;;;;;;;;20.49;100.00;102125.09;5091798;28;19927;-36
2022/08/12 02:46:27;;;;;;;;;;;;;;;20.47;100.00;102127.41;5092310;28;19919;-37
2022/08/12 02:48:59;;;;;;;;;;;;;;;20.46;100.00;102125.75;5092457;28;19926;-37
2022/08/12 02:51:29;;;;;;;;;;;;;;;20.44;100.00;102128.91;5091752;28;19959;-39
2022/08/12 02:53:58;;;;;;;;;;;;;;;20.43;100.00;102126.41;5092280;28;19973;-40
2022/08/12 02:56:32;;;;;;;;;;;;;;;20.42;100.00;102133.25;5092627;28;19920;-38
2022/08/12 02:59:01;;;;;;;;;;;;;;;20.40;100.00;102130.75;5091538;28;19920;-34
2022/08/12 03:01:32;;;;;;;;;;;;;;;20.39;100.00;102125.41;5092302;28;19951;-42
2022/08/12 03:04:01;;;;;;;;;;;;;;;20.38;100.00;102126.63;5091860;28;19919;-38
2022/08/12 03:06:37;;;;;;;;;;;;;;;20.37;100.00;102116.44;5092614;28;19943;-37
2022/08/12 03:09:05;;;;;;;;;;;;;;;20.36;100.00;102120.41;5092081;28;19927;-42
2022/08/12 03:11:39;;;;;;;;;;;;;;;20.34;100.00;102122.75;5091780;28;19920;-40
2022/08/12 03:14:16;;;;;;;;;;;;;;;20.32;100.00;102113.75;5091855;28;20385;-37
2022/08/12 03:16:49;;;;;;;;;;;;;;;20.29;100.00;102103.91;5092350;28;19920;-35
2022/08/12 03:19:19;;;;;;;;;;;;;;;20.30;100.00;102105.56;5091419;28;19920;-33
2022/08/12 03:21:49;;;;;;;;;;;;;;;20.29;100.00;102101.91;5092263;28;19920;-37
2022/08/12 03:24:37;;;;;;;;;;;;;;;20.26;100.00;102101.72;5090852;28;19920;-36
2022/08/12 03:27:08;;;;;;;;;;;;;;;20.26;100.00;102096.88;5089889;28;19920;-35
2022/08/12 03:29:37;;;;;;;;;;;;;;;20.24;100.00;102104.06;5090635;28;19924;-39
2022/08/12 03:32:19;;;;;;;;;;;;;;;20.23;100.00;102100.38;5090903;28;19934;-41
2022/08/12 03:35:06;;;;;;;;;;;;;;;20.23;100.00;102096.72;5090632;28;19932;-34
2022/08/12 03:37:35;;;;;;;;;;;;;;;20.23;100.00;102099.56;5091971;28;19920;-34
2022/08/12 03:40:03;;;;;;;;;;;;;;;20.22;100.00;102097.88;5093215;28;19947;-38
2022/08/12 03:42:34;;;;;;;;;;;;;;;20.21;100.00;102096.22;5095933;28;19920;-36
2022/08/12 04:02:00;;;;;;;;;;;;;;;20.12;100.00;102087.75;5085937;28;19928;-36
2022/08/12 04:04:33;;;;;;;;;;;;;;;20.12;100.00;102089.75;5095104;28;20010;-38
2022/08/12 04:07:02;;;;;;;;;;;;;;;20.11;100.00;102090.91;5095387;28;19920;-40
2022/08/12 04:09:29;;;;;;;;;;;;;;;20.10;100.00;102095.75;5094227;28;20289;-38
2022/08/12 04:14:42;;;;;;;;;;;;;;;20.10;100.00;102089.25;5094064;28;19924;-37
2022/08/12 04:17:11;;;;;;;;;;;;;;;20.09;100.00;102077.06;5095302;28;19927;-39
2022/08/12 04:19:40;;;;;;;;;;;;;;;20.08;100.00;102081.06;5094731;28;20395;-40
2022/08/12 04:22:08;;;;;;;;;;;;;;;20.08;100.00;102092.41;5093418;28;19920;-37
2022/08/12 04:24:36;;;;;;;;;;;;;;;20.09;100.00;102079.06;5092683;28;19923;-39
2022/08/12 04:27:08;;;;;;;;;;;;;;;20.07;100.00;102076.56;5090400;28;19924;-38
2022/08/12 04:29:37;;;;;;;;;;;;;;;20.06;100.00;102083.41;5093178;28;19924;-39
2022/08/12 04:32:24;;;;;;;;;;;;;;;20.06;100.00;102071.22;5091429;28;20381;-36
2022/08/12 04:34:54;;;;;;;;;;;;;;;20.05;100.00;102078.91;5093205;28;19924;-42
2022/08/12 04:37:22;;;;;;;;;;;;;;;20.06;100.00;102079.72;5092692;28;19924;-36
2022/08/12 04:39:49;;;;;;;;;;;;;;;20.05;100.00;102078.91;5093912;28;19928;-38
2022/08/12 04:42:18;;;;;;;;;;;;;;;20.08;100.00;102080.22;5091356;28;19920;-40
2022/08/12 04:44:46;;;;;;;;;;;;;;;20.09;100.00;102079.91;5092986;28;19931;-40
2022/08/12 04:47:15;;;;;;;;;;;;;;;20.09;100.00;102079.91;5093151;28;19930;-39
2022/08/12 04:49:43;;;;;;;;;;;;;;;20.07;100.00;102082.22;5093010;28;20019;-40
2022/08/12 04:52:12;;;;;;;;;;;;;;;20.05;100.00;102080.91;5093323;28;19923;-39
2022/08/12 04:54:42;;;;;;;;;;;;;;;20.05;100.00;102081.72;5093760;28;20394;-39
2022/08/12 04:57:10;;;;;;;;;;;;;;;20.06;100.00;102074.91;5092257;28;19963;-38
2022/08/12 04:59:37;;;;;;;;;;;;;;;20.06;100.00;102082.56;5093007;28;19924;-39
2022/08/12 05:02:13;;;;;;;;;;;;;;;20.09;100.00;102084.72;5092825;28;19924;-39
2022/08/12 05:04:48;;;;;;;;;;;;;;;20.10;100.00;102084.41;5092675;28;19928;-39
2022/08/12 05:07:17;;;;;;;;;;;;;;;20.12;100.00;102084.91;5093039;28;20338;-38
2022/08/12 05:09:45;;;;;;;;;;;;;;;20.12;100.00;102084.91;5092959;28;19942;-38
2022/08/12 05:12:29;;;;;;;;;;;;;;;20.14;100.00;102084.56;5091301;28;19943;-39
2022/08/12 05:14:58;;;;;;;;;;;;;;;20.16;100.00;102079.41;5092335;28;20292;-36
2022/08/12 05:17:25;;;;;;;;;;;;;;;20.19;100.00;102070.22;5092734;28;19931;-38
2022/08/12 05:19:54;;;;;;;;;;;;;;;20.19;100.00;102068.22;5091922;28;20365;-35
2022/08/12 05:22:25;;;;;;;;;;;;;;;20.23;100.00;102076.88;5092381;28;19920;-39
2022/08/12 05:24:53;;;;;;;;;;;;;;;20.24;100.00;102065.22;5092026;28;19947;-36
2022/08/12 05:27:21;;;;;;;;;;;;;;;20.25;100.00;102066.88;5092276;28;19935;-41
2022/08/12 05:29:49;;;;;;;;;;;;;;;20.27;100.00;102073.03;5092914;28;19927;-37
2022/08/12 05:32:35;;;;;;;;;;;;;;;20.30;100.00;102075.22;5091071;28;19947;-34
2022/08/12 05:35:05;;;;;;;;;;;;;;;20.32;100.00;102071.22;5091961;28;19952;-36
2022/08/12 05:37:34;;;;;;;;;;;;;;;20.34;100.00;102069.72;5091856;28;20361;-34
2022/08/12 05:40:03;;;;;;;;;;;;;;;20.38;100.00;102078.41;5091480;28;19935;-34
2022/08/12 05:42:37;;;;;;;;;;;;;;;20.41;100.00;102081.38;5090379;28;19919;-37
2022/08/12 05:45:05;;;;;;;;;;;;;;;20.43;100.00;102078.22;5092019;28;19924;-39
2022/08/12 05:47:33;;;;;;;;;;;;;;;20.48;100.00;102083.72;5091227;28;20292;-37
2022/08/12 05:50:20;;;;;;;;;;;;;;;20.53;100.00;102081.53;5081201;28;19924;-45
2022/08/12 05:52:49;;;;;;;;;;;;;;;20.58;100.00;102094.72;5091944;28;20300;-36
2022/08/12 05:55:21;;;;;;;;;;;;;;;20.61;100.00;102097.69;5092381;28;19962;-38
2022/08/12 05:57:54;;;;;;;;;;;;;;;20.64;100.00;102099.84;5091978;28;19927;-34
2022/08/12 06:00:24;;;;;;;;;;;;;;;20.69;100.00;102096.00;5090943;28;19920;-37
2022/08/12 06:02:59;;;;;;;;;;;;;;;20.74;100.00;102097.84;5090794;28;19930;-37
2022/08/12 06:05:27;;;;;;;;;;;;;;;20.79;100.00;102103.31;5089276;28;19924;-35
2022/08/12 06:07:57;;;;;;;;;;;;;;;20.82;100.00;102103.47;5091325;28;19920;-36
2022/08/12 06:10:29;;;;;;;;;;;;;;;20.85;100.00;102099.13;5091261;28;19924;-36
2022/08/12 06:12:59;;;;;;;;;;;;;;;20.88;100.00;102098.44;5093034;28;19927;-35
2022/08/12 06:15:27;;;;;;;;;;;;;;;20.90;100.00;102099.78;5091550;28;19920;-31
2022/08/12 06:17:55;;;;;;;;;;;;;;;20.94;100.00;102100.78;5092804;28;19924;-32
2022/08/12 06:20:22;;;;;;;;;;;;;;;21.01;100.00;102102.22;5092632;28;20285;-39
2022/08/12 06:23:01;;;;;;;;;;;;;;;21.08;100.00;102099.72;5092247;28;19932;-36
2022/08/12 06:25:29;;;;;;;;;;;;;;;21.15;100.00;102105.69;5092241;28;19946;-37
2022/08/12 06:27:57;;;;;;;;;;;;;;;21.24;100.00;102101.66;5092791;28;19920;-32
2022/08/12 06:30:35;;;;;;;;;;;;;;;21.33;100.00;102093.13;5092461;28;20377;-32
2022/08/12 06:33:07;;;;;;;;;;;;;;;21.46;100.00;102094.03;5092725;28;19920;-42
2022/08/12 06:35:49;;;;;;;;;;;;;;;21.70;100.00;102087.69;5091646;28;19919;-40
2022/08/12 06:38:20;;;;;;;;;;;;;;;22.03;100.00;102082.94;5093141;28;19924;-40
2022/08/12 06:43:34;;;;;;;;;;;;;;;22.94;100.00;102083.88;5072145;28;19927;-42
2022/08/12 06:46:22;;;;;;;;;;;;;;;23.59;100.00;102090.53;5090825;28;19927;-33
2022/08/12 06:48:54;;;;;;;;;;;;;;;24.15;100.00;102080.09;5092911;28;19920;-33
2022/08/12 06:51:22;;;;;;;;;;;;;;;24.69;100.00;102080.44;5091607;28;19924;-41
2022/08/12 06:53:51;;;;;;;;;;;;;;;25.24;98.03;102074.94;5091789;28;19920;-33
2022/08/12 06:56:19;;;;;;;;;;;;;;;25.79;93.33;102081.59;5089836;28;19927;-33
2022/08/12 06:58:47;;;;;;;;;;;;;;;26.28;88.24;102073.28;5090281;28;19930;-41
2022/08/12 07:01:16;;;;;;;;;;;;;;;26.83;85.39;102074.78;5091922;28;19920;-33
2022/08/12 07:03:44;;;;;;;;;;;;;;;27.34;82.09;102077.34;5091237;28;19931;-35
2022/08/12 07:06:12;;;;;;;;;;;;;;;27.99;80.93;102085.69;5092094;28;19920;-33
2022/08/12 07:08:42;;;;;;;;;;;;;;;28.56;72.71;102072.09;5092271;28;19920;-33
2022/08/12 07:11:12;;;;;;;;;;;;;;;29.03;70.36;102077.09;5091396;28;19920;-34
2022/08/12 07:13:43;;;;;;;;;;;;;;;29.58;67.46;102080.84;5092226;28;19932;-33
2022/08/12 07:16:50;;;;;;;;;;;;;;;30.16;65.08;102077.13;5096018;28;20418;-35
2022/08/12 07:19:19;;;;;;;;;;;;;;;30.69;60.89;102085.13;5095682;28;19920;-33
2022/08/12 07:21:47;;;;;;;;;;;;;;;31.17;58.03;102080.72;5095754;28;19959;-33
2022/08/12 07:24:29;;;;;;;;;;;;;;;31.62;54.82;102081.06;5095666;28;19959;-33
2022/08/12 07:26:58;;;;;;;;;;;;;;;32.01;51.21;102078.09;5095769;28;19919;-34
2022/08/12 07:29:27;;;;;;;;;;;;;;;32.32;49.83;102082.13;5096105;28;19920;-33
2022/08/12 07:32:14;;;;;;;;;;;;;;;32.46;45.86;102084.13;5095237;28;19942;-36
2022/08/12 07:34:42;;;;;;;;;;;;;;;32.50;49.28;102084.94;5095926;28;19930;-37
2022/08/12 07:37:10;;;;;;;;;;;;;;;32.66;47.45;102076.56;5095776;28;20327;-33
2022/08/12 07:39:37;;;;;;;;;;;;;;;32.71;46.02;102076.13;5093949;28;20292;-37
2022/08/12 07:42:26;;;;;;;;;;;;;;;32.92;49.66;102080.16;5094789;28;19919;-38
2022/08/12 07:44:54;;;;;;;;;;;;;;;33.25;48.68;102082.34;5094677;28;19931;-36
2022/08/12 07:47:22;;;;;;;;;;;;;;;33.52;48.74;102079.66;5093707;28;19920;-37
2022/08/12 07:49:51;;;;;;;;;;;;;;;33.75;48.51;102087.72;5094674;28;19927;-37
2022/08/12 07:52:32;;;;;;;;;;;;;;;34.00;47.02;102079.56;5094404;28;20335;-37
2022/08/12 07:55:00;;;;;;;;;;;;;;;34.23;46.42;102084.66;5095266;28;20082;-39
2022/08/12 07:57:31;;;;;;;;;;;;;;;34.32;43.85;102092.88;5095421;28;19923;-39
2022/08/12 08:00:02;;;;;;;;;;;;;;;34.42;44.86;102098.53;5094907;28;20026;-40
2022/08/12 08:02:35;;;;;;;;;;;;;;;34.43;44.31;102099.34;5094628;28;20382;-40
2022/08/12 08:05:03;;;;;;;;;;;;;;;34.51;44.27;102095.91;5095118;28;19924;-41
2022/08/12 08:07:30;;;;;;;;;;;;;;;34.72;43.11;102093.97;5094113;28;19938;-40
2022/08/12 08:09:58;;;;;;;;;;;;;;;34.93;42.46;102093.69;5083890;28;19927;-40
2022/08/12 08:15:14;;;;;;;;;;;;;;;35.25;42.10;102098.94;5083868;28;20284;-40
2022/08/12 08:17:56;;;;;;;;;;;;;;;35.50;40.61;102096.47;5094713;28;19920;-39
2022/08/12 08:20:27;;;;;;;;;;;;;;;35.60;40.12;102091.69;5084823;28;19943;-40
2022/08/12 08:22:56;;;;;;;;;;;;;;;35.78;39.57;102091.41;5094920;28;19942;-41
2022/08/12 08:25:29;;;;;;;;;;;;;;;35.94;39.49;102082.78;5094156;28;19920;-41
2022/08/12 08:28:04;;;;;;;;;;;;;;;36.17;38.55;102084.81;5094113;28;19942;-39
2022/08/12 08:30:36;;;;;;;;;;;;;;;36.36;38.30;102092.72;5093730;28;20312;-41
2022/08/12 08:33:04;;;;;;;;;;;;;;;36.47;37.03;102096.22;5094189;28;19928;-41
2022/08/12 08:35:51;;;;;;;;;;;;;;;36.37;37.87;102079.84;5082636;28;19920;-41
2022/08/12 08:38:21;;;;;;;;;;;;;;;36.46;38.20;102088.75;5093346;28;20368;-39
2022/08/12 08:44:07;;;;;;;;;;;;;;;36.84;36.34;102082.50;5093696;28;19924;-39
2022/08/12 08:46:36;;;;;;;;;;;;;;;36.65;35.80;102087.06;5094268;28;20280;-40
2022/08/12 08:49:04;;;;;;;;;;;;;;;36.59;35.31;102088.88;5092855;28;20438;-41
2022/08/12 08:51:32;;;;;;;;;;;;;;;36.66;36.26;102091.63;5094291;28;19919;-41
2022/08/12 08:54:00;;;;;;;;;;;;;;;36.84;36.11;102085.41;5092892;28;19942;-39
2022/08/12 08:56:29;;;;;;;;;;;;;;;37.00;34.96;102082.50;5093123;28;19920;-37
2022/08/12 08:58:56;;;;;;;;;;;;;;;37.08;35.07;102083.16;5093354;28;19938;-36
2022/08/12 09:01:24;;;;;;;;;;;;;;;37.15;34.55;102080.91;5093444;28;19923;-37
2022/08/12 09:03:53;;;;;;;;;;;;;;;37.34;34.58;102081.28;5092253;28;20019;-41
2022/08/12 09:06:41;;;;;;;;;;;;;;;37.57;32.91;102089.81;5093085;28;19927;-42
2022/08/12 09:09:21;;;;;;;;;;;;;;;37.69;33.55;102085.34;5093555;28;20435;-43
2022/08/12 09:14:42;;;;;;;;;;;;;;;37.77;33.17;102078.84;5093956;28;19924;-43
2022/08/12 09:17:21;;;;;;;;;;;;;;;37.71;33.07;102077.78;5082994;28;19975;-39
2022/08/12 09:19:50;;;;;;;;;;;;;;;37.66;32.78;102077.53;5093734;28;19954;-39
2022/08/12 09:22:24;;;;;;;;;;;;;;;37.71;33.86;102079.91;5083245;28;19923;-41
2022/08/12 09:24:55;;;;;;;;;;;;;;;37.99;33.00;102086.97;5092646;28;19974;-40
2022/08/12 09:27:26;;;;;;;;;;;;;;;38.21;33.13;102082.19;5093135;28;19920;-40
2022/08/12 09:30:15;;;;;;;;;;;;;;;38.31;31.82;102083.97;5093314;28;20354;-43
2022/08/12 09:32:45;;;;;;;;;;;;;;;38.22;32.46;102078.81;5082299;28;19920;-44
2022/08/12 09:35:40;;;;;;;;;;;;;;;38.28;30.08;102087.00;5092914;28;19974;-42
2022/08/12 09:38:11;;;;;;;;;;;;;;;38.17;30.15;102085.22;5090384;28;20343;-40
2022/08/12 09:40:56;;;;;;;;;;;;;;;38.10;31.02;102078.75;5093157;28;19930;-40
2022/08/12 09:46:32;;;;;;;;;;;;;;;38.39;31.25;102076.63;5092469;28;19924;-36
2022/08/12 09:49:01;;;;;;;;;;;;;;;38.35;31.42;102070.13;5093623;28;19920;-41
2022/08/12 09:51:42;;;;;;;;;;;;;;;38.37;30.64;102060.91;5093160;28;19920;-41
2022/08/12 09:54:11;;;;;;;;;;;;;;;38.35;29.60;102067.19;5092878;28;19967;-41
2022/08/12 09:56:58;;;;;;;;;;;;;;;38.15;32.09;102049.91;5093045;28;20293;-44
2022/08/12 09:59:46;;;;;;;;;;;;;;;38.20;30.51;102063.88;5092615;28;19920;-40
2022/08/12 10:02:38;;;;;;;;;;;;;;;38.34;31.22;102050.97;5092960;28;20262;-40
2022/08/12 10:05:16;;;;;;;;;;;;;;;38.56;30.87;102057.81;5073238;28;19924;-40
2022/08/12 10:07:48;;;;;;;;;;;;;;;38.65;29.78;102056.28;5088759;28;20042;-36
2022/08/12 10:10:16;;;;;;;;;;;;;;;38.61;29.61;102053.47;5078859;28;19935;-35
2022/08/12 10:15:43;;;;;;;;;;;;;;;38.31;30.96;102054.00;5072845;28;20346;-41
2022/08/12 10:18:31;;;;;;;;;;;;;;;38.25;30.90;102047.91;5092405;28;19931;-41
2022/08/12 10:21:04;;;;;;;;;;;;;;;38.35;29.73;102048.88;5091944;28;20374;-40
2022/08/12 10:23:35;;;;;;;;;;;;;;;38.41;30.80;102038.25;5092740;28;19963;-39
2022/08/12 10:32:16;;;;;;;;;;;;;;;38.29;30.85;102042.78;5092693;28;19920;-42
2022/08/12 10:34:49;;;;;;;;;;;;;;;38.31;31.00;102036.50;5081138;28;19924;-39
2022/08/12 10:37:23;;;;;;;;;;;;;;;38.39;31.09;102035.78;5092449;28;19924;-36
2022/08/12 10:40:12;;;;;;;;;;;;;;;38.53;30.67;102029.53;5083521;28;20388;-41
2022/08/12 10:45:34;;;;;;;;;;;;;;;38.52;28.54;102032.91;5092695;28;19920;-38
2022/08/12 10:48:05;;;;;;;;;;;;;;;38.48;28.39;102027.19;5091809;28;19992;-41
2022/08/12 10:50:52;;;;;;;;;;;;;;;38.31;29.07;102025.66;5092697;28;19943;-42
2022/08/12 10:53:29;;;;;;;;;;;;;;;38.15;29.01;102014.91;5092427;28;19920;-37
2022/08/12 10:56:15;;;;;;;;;;;;;;;37.97;30.12;102008.78;5091698;28;19927;-38
2022/08/12 10:58:42;;;;;;;;;;;;;;;38.09;30.29;102012.97;5092555;28;19920;-42
2022/08/12 11:01:14;;;;;;;;;;;;;;;38.05;29.44;102012.28;5092641;28;20293;-38
2022/08/12 11:04:03;;;;;;;;;;;;;;;37.96;28.78;102003.41;5091250;28;19924;-42
2022/08/12 11:06:52;;;;;;;;;;;;;;;37.74;28.46;102015.69;5092281;28;19920;-42
2022/08/12 11:09:41;;;;;;;;;;;;;;;37.74;29.36;102009.88;5091520;28;19931;-41
2022/08/12 11:12:30;;;;;;;;;;;;;;;37.81;29.43;102005.91;5092522;28;19920;-39
2022/08/12 11:15:22;;;;;;;;;;;;;;;37.86;29.84;101991.59;5091787;28;19920;-41
2022/08/12 11:18:09;;;;;;;;;;;;;;;37.84;28.41;101999.16;5092019;28;19920;-41
2022/08/12 11:20:38;;;;;;;;;;;;;;;37.82;27.14;102002.53;5091903;28;19919;-40
2022/08/12 11:23:08;;;;;;;;;;;;;;;37.93;29.53;101984.75;5092396;28;20019;-41
2022/08/12 11:25:55;;;;;;;;;;;;;;;38.02;29.55;101987.78;5091620;28;19973;-42
2022/08/12 11:28:33;;;;;;;;;;;;;;;38.02;27.99;101987.78;5092143;28;20010;-39
2022/08/12 11:31:05;;;;;;;;;;;;;;;37.97;29.33;101987.56;5090312;28;20273;-37
2022/08/12 11:33:33;;;;;;;;;;;;;;;38.03;29.72;101994.41;5092204;28;19927;-42
2022/08/12 11:36:20;;;;;;;;;;;;;;;38.22;30.85;101996.34;5092080;28;19928;-41
2022/08/12 11:38:49;;;;;;;;;;;;;;;38.31;30.43;101993.56;5091423;28;19942;-39
2022/08/12 11:41:18;;;;;;;;;;;;;;;38.50;30.51;101994.63;5091620;28;20403;-41
2022/08/12 11:44:00;;;;;;;;;;;;;;;38.62;28.97;101995.94;5092188;28;19920;-42
2022/08/12 11:46:49;;;;;;;;;;;;;;;38.66;30.49;101988.69;5088028;28;19934;-41
2022/08/12 11:49:19;;;;;;;;;;;;;;;38.77;30.16;101985.44;5091755;28;19920;-41
2022/08/12 11:51:58;;;;;;;;;;;;;;;38.91;30.37;101968.25;5088139;28;19934;-41
2022/08/12 11:54:25;;;;;;;;;;;;;;;38.91;30.25;101976.19;5090528;28;19920;-41
2022/08/12 11:56:56;;;;;;;;;;;;;;;38.98;30.30;101972.19;5090857;28;19927;-41
2022/08/12 11:59:28;;;;;;;;;;;;;;;39.08;29.97;101971.84;5091368;28;19920;-38
2022/08/12 12:02:16;;;;;;;;;;;;;;;39.08;30.01;101971.03;5095531;28;20300;-43
2022/08/12 12:04:47;;;;;;;;;;;;;;;39.01;30.91;101971.28;5095399;28;19920;-41
2022/08/12 12:07:21;;;;;;;;;;;;;;;38.99;30.75;101965.88;5093873;28;20296;-38
2022/08/12 12:10:09;;;;;;;;;;;;;;;38.93;31.27;101964.84;5095190;28;19924;-42
2022/08/12 12:12:37;;;;;;;;;;;;;;;38.80;30.71;101966.97;5094895;28;19924;-44
2022/08/12 12:15:10;;;;;;;;;;;;;;;38.74;30.82;101963.84;5095259;28;20345;-42
2022/08/12 12:17:40;;;;;;;;;;;;;;;38.77;31.13;101962.09;5094306;28;19976;-42
2022/08/12 12:20:09;;;;;;;;;;;;;;;38.81;31.29;101957.72;5094460;28;19926;-40
2022/08/12 12:22:38;;;;;;;;;;;;;;;38.88;31.17;101957.50;5094896;28;19920;-42
2022/08/12 12:25:06;;;;;;;;;;;;;;;38.85;30.65;101951.78;5095228;28;19924;-41
2022/08/12 12:27:50;;;;;;;;;;;;;;;38.71;31.18;101949.38;5093730;28;19970;-42
2022/08/12 12:30:35;;;;;;;;;;;;;;;38.57;31.20;101951.47;5095210;28;19920;-41
2022/08/12 12:33:04;;;;;;;;;;;;;;;38.42;31.26;101956.13;5094869;28;19989;-40
2022/08/12 12:35:32;;;;;;;;;;;;;;;38.34;31.57;101951.81;5094458;28;19924;-33
2022/08/12 12:38:20;;;;;;;;;;;;;;;38.29;31.15;101951.56;5093964;28;20379;-41
2022/08/12 12:40:52;;;;;;;;;;;;;;;38.16;30.18;101957.41;5094035;28;20385;-31
2022/08/12 12:43:21;;;;;;;;;;;;;;;38.04;30.79;101949.41;5093553;28;20417;-31
2022/08/12 12:46:10;;;;;;;;;;;;;;;37.92;31.06;101937.28;5094513;28;19920;-33
2022/08/12 12:48:37;;;;;;;;;;;;;;;37.91;30.81;101952.31;5093885;28;19920;-32
2022/08/12 12:51:17;;;;;;;;;;;;;;;37.90;29.58;101947.78;5094603;28;20372;-32
2022/08/12 12:54:04;;;;;;;;;;;;;;;37.91;30.81;101946.50;5091756;28;19920;-31
2022/08/12 12:56:41;;;;;;;;;;;;;;;37.88;31.08;101942.41;5093759;28;19951;-31
2022/08/12 12:59:10;;;;;;;;;;;;;;;37.70;30.71;101942.13;5090805;28;19920;-35
2022/08/12 13:02:05;;;;;;;;;;;;;;;37.65;31.69;101939.78;5093408;28;19931;-31
2022/08/12 13:04:35;;;;;;;;;;;;;;;37.66;31.43;101935.59;5094407;28;19920;-33
2022/08/12 13:07:04;;;;;;;;;;;;;;;37.61;32.04;101933.19;5093605;28;19920;-31
2022/08/12 13:09:33;;;;;;;;;;;;;;;37.62;32.27;101931.94;5093349;28;19927;-38
2022/08/12 13:12:03;;;;;;;;;;;;;;;37.57;32.48;101927.47;5093798;28;19946;-33
2022/08/12 13:14:32;;;;;;;;;;;;;;;37.47;30.54;101924.91;5093116;28;19924;-35
2022/08/12 13:17:03;;;;;;;;;;;;;;;37.41;32.22;101920.91;5093352;28;20510;-31
2022/08/12 13:19:35;;;;;;;;;;;;;;;37.34;32.17;101924.84;5093621;28;19935;-32
2022/08/12 13:22:16;;;;;;;;;;;;;;;37.35;32.46;101914.03;5093861;28;20388;-37
2022/08/12 13:24:45;;;;;;;;;;;;;;;37.34;32.60;101924.84;5092868;28;19927;-42
2022/08/12 13:27:21;;;;;;;;;;;;;;;37.28;31.99;101923.78;5094103;28;20347;-38
2022/08/12 13:29:54;;;;;;;;;;;;;;;37.17;32.48;101929.84;5092696;28;20297;-38
2022/08/12 13:32:28;;;;;;;;;;;;;;;37.14;32.13;101915.44;5091429;28;19978;-40
2022/08/12 13:34:59;;;;;;;;;;;;;;;37.11;32.80;101917.16;5092107;28;19927;-38
2022/08/12 13:37:49;;;;;;;;;;;;;;;36.96;33.24;101909.28;5092106;28;19923;-32
2022/08/12 13:40:21;;;;;;;;;;;;;;;36.84;33.78;101902.09;5091119;28;20416;-38
2022/08/12 13:42:54;;;;;;;;;;;;;;;36.80;33.30;101904.28;5092321;28;19928;-32
2022/08/12 13:45:22;;;;;;;;;;;;;;;36.90;34.00;101906.91;5091435;28;19919;-38
2022/08/12 13:47:54;;;;;;;;;;;;;;;36.89;33.88;101902.38;5092145;28;19930;-33
2022/08/12 13:50:22;;;;;;;;;;;;;;;36.88;34.00;101902.81;5092388;28;20391;-31
2022/08/12 13:52:53;;;;;;;;;;;;;;;36.85;33.63;101906.66;5091722;28;19977;-38
2022/08/12 13:55:24;;;;;;;;;;;;;;;36.71;33.77;101892.47;5091649;28;19928;-38
2022/08/12 13:57:58;;;;;;;;;;;;;;;36.70;34.16;101893.72;5072326;28;19920;-33
2022/08/12 14:00:27;;;;;;;;;;;;;;;36.57;34.45;101890.75;5085171;28;19930;-32
2022/08/12 14:03:06;;;;;;;;;;;;;;;36.41;34.44;101884.91;5071977;28;20233;-37
2022/08/12 14:05:37;;;;;;;;;;;;;;;36.25;35.03;101888.63;5087262;28;20294;-31
2022/08/12 14:08:06;;;;;;;;;;;;;;;36.01;35.18;101878.38;5091687;28;19924;-37
2022/08/12 14:10:36;;;;;;;;;;;;;;;35.77;35.84;101877.72;5091915;28;20406;-32
2022/08/12 14:13:05;;;;;;;;;;;;;;;35.68;36.03;101878.28;5091286;28;19920;-31
2022/08/12 14:15:46;;;;;;;;;;;;;;;35.58;35.78;101871.44;5091724;28;19924;-38
2022/08/12 14:18:16;;;;;;;;;;;;;;;35.44;36.06;101873.84;5091650;28;19927;-38
2022/08/12 14:20:45;;;;;;;;;;;;;;;35.31;36.47;101875.78;5090623;28;20372;-33
2022/08/12 14:23:14;;;;;;;;;;;;;;;35.23;36.57;101875.91;5091244;28;19924;-33
2022/08/12 14:26:04;;;;;;;;;;;;;;;35.20;37.07;101870.16;5091664;28;20367;-31
2022/08/12 14:28:33;;;;;;;;;;;;;;;35.18;36.94;101867.69;5090838;28;19920;-42
2022/08/12 14:31:03;;;;;;;;;;;;;;;35.13;37.10;101870.31;5091140;28;19997;-31
2022/08/12 14:33:33;;;;;;;;;;;;;;;34.95;36.71;101876.47;5090955;28;19931;-32
2022/08/12 14:36:11;;;;;;;;;;;;;;;34.69;37.22;101872.38;5091448;28;19992;-31
2022/08/12 14:38:40;;;;;;;;;;;;;;;34.58;37.37;101868.00;5091374;28;20412;-31
2022/08/12 14:41:09;;;;;;;;;;;;;;;34.54;37.38;101868.09;5090471;28;20385;-37
2022/08/12 14:43:38;;;;;;;;;;;;;;;34.55;37.71;101866.84;5091092;28;19920;-41
2022/08/12 14:46:26;;;;;;;;;;;;;;;34.48;37.63;101870.66;5091174;28;19920;-41
2022/08/12 14:48:55;;;;;;;;;;;;;;;34.30;37.86;101863.53;5090641;28;20073;-34
2022/08/12 14:51:24;;;;;;;;;;;;;;;34.18;38.06;101862.03;5091120;28;20385;-31